x

Devils Island, Wi (disw3) Weather Station

1:00pm - Sat 27th Aug 2016 All times are CDT. -5 hours from GMT.

  • Wind
    5mph
  • Air Temp 65°f
  • Sea Pressure 1017.9mb
  • Devils Island, Wi
  • Devils Island, Wi

More Historic Weather Station data

Upgrade to MSW Pro to gain access to the past 30 days of data for over 8000 Wavebouys and Weather Stations around the globe.

Join Pro

Comparision Forecast

View Surf forecast
   
Sat 08/27 1:00pm 5
mph
1017.9mb 65f
12:00pm 3 5 mph 1018.2mb 66f
11:00am 2 5 mph 1019mb 66f
10:00am 6 7 mph 1019.5mb 65f
9:00am 2 6 mph 1019.6mb 66f
8:00am 5 7 mph 1019.7mb 63f
7:00am 5 6 mph 1019.7mb 63f
6:00am 5 6 mph 1019.8mb 63f
5:00am 6 7 mph 1019.6mb 63f
4:00am 5
mph
1020mb 64f
3:00am 7
mph
1019.8mb 64f
2:00am 6 7 mph 1020mb 64f
1:00am 6 7 mph 1020.2mb 64f
12:00am 8 10 mph 1020.4mb 64f
Fri 08/26 11:00pm 8 9 mph 1020.5mb 64f
10:00pm 8 9 mph 1020.1mb 64f
9:00pm 9 10 mph 1020.1mb 64f
8:00pm 9 11 mph 1020mb 64f
7:00pm 8 10 mph 1020.1mb 65f
6:00pm 8 10 mph 1020.4mb 66f
5:00pm 8 11 mph 1020.6mb 67f
4:00pm 5 8 mph 1020.7mb 67f
3:00pm 8 10 mph 1020.5mb 65f
2:00pm 6 7 mph 1021.1mb 64f
1:00pm 3 5 mph 1021.3mb 63f
12:00pm 3 5 mph 1021.3mb 62f
11:00am 3 6 mph 1021.7mb 62f
10:00am 5 7 mph 1021.6mb 61f
9:00am 7 9 mph 1020.9mb 60f
8:00am 14 16 mph 1020.2mb 60f
7:00am 17 20 mph 1019.7mb 60f
6:00am 15 16 mph 1019mb 61f
5:00am 14 17 mph 1018.5mb 62f
4:00am 15 18 mph 1018.1mb 62f
3:00am 14 17 mph 1017.6mb 63f
2:00am 15 17 mph 1017.8mb 63f
1:00am 15 18 mph 1017mb 63f
12:00am 18 20 mph 1016.5mb 64f
Thu 08/25 11:00pm 16 20 mph 1016.1mb 64f
10:00pm 22 24 mph 1015.6mb 65f
9:00pm 23 28 mph 1015.1mb 66f
8:00pm 24 30 mph 1014.6mb 67f
7:00pm 23 28 mph 1014.5mb 67f
6:00pm 24 31 mph 1014.1mb 67f
5:00pm 26 30 mph 1013.7mb 67f
4:00pm 28 34 mph 1013.3mb 67f
3:00pm 24 28 mph 1013.2mb 68f
2:00pm 22 25 mph 1012.9mb 68f
1:00pm 25 30 mph 1012.8mb 68f
12:00pm 24 29 mph 1012.9mb 67f
11:00am 14 17 mph 1012.8mb 66f
10:00am 21 23 mph 1012.8mb 65f
9:00am 18 23 mph 1012.9mb 65f
8:00am 20 24 mph 1013.2mb 64f
7:00am 17 21 mph 1013.2mb 65f
6:00am 17 21 mph 1013mb 65f
5:00am 18 22 mph 1012.7mb 66f
4:00am 15 17 mph 1013mb 66f
3:00am 13 16 mph 1012.5mb 66f
2:00am 11 13 mph 1012.5mb 67f
1:00am 13 15 mph 1012.2mb 68f
12:00am 16 18 mph 1012.2mb 68f
Wed 08/24 11:00pm 15 17 mph 1012mb 69f
10:00pm 18 20 mph 1011.4mb 70f
9:00pm 17 20 mph 1010.7mb 71f
8:00pm 16 18 mph 1010.2mb 71f
7:00pm 18 20 mph 1009.7mb 71f
6:00pm 18 21 mph 1009mb 73f
5:00pm 21 23 mph 1008.8mb 75f
4:00pm 14 16 mph 1009mb 73f
3:00pm 22 25 mph 1008.7mb 71f
2:00pm 14 17 mph 1008.9mb 70f
1:00pm 8 13 mph 1009mb 70f
12:00pm 7 13 mph 1009.4mb 70f
11:00am 9 11 mph 1009.3mb 69f
10:00am 5 6 mph 1008.9mb 70f
9:00am 1 2 mph 1009mb 70f
8:00am 5
mph
1009.2mb 68f
7:00am 2
mph
1009.2mb 69f
6:00am 5
mph
1009.4mb 68f
5:00am 6
mph
1009.3mb 70f
4:00am 6
mph
1010.1mb 70f
3:00am 3 5 mph 1010.4mb 71f
2:00am 5 6 mph 1010.3mb 71f
1:00am 9 13 mph 1010mb 72f
12:00am 8 13 mph 1011mb 73f
Tue 08/23 11:00pm 9 15 mph 1011.3mb 73f
10:00pm 8 11 mph 1011.6mb 74f
9:00pm 10 14 mph 1011.8mb 76f
8:00pm 13 16 mph 1011.4mb 77f